Time;durP1;ratioP1;P1;durP2;ratioP2;P2;SDS_P1;SDS_P2;PMS_P1;PMS_P2;Temp;Humidity;BMP_temperature;BMP_pressure;BME280_temperature;BME280_humidity;BME280_pressure;Samples;Min_cycle;Max_cycle;Signal;HPM_P1;HPM_P2
2023/07/04 00:00:35;;;;;;;11.82;5.80;;;;;;;20.92;100.00;100326.78;4990237;28;20057;-76
2023/07/04 00:03:01;;;;;;;8.70;5.90;;;;;;;21.19;100.00;100366.50;5008718;28;20049;-75
2023/07/04 00:05:26;;;;;;;7.88;4.13;;;;;;;21.13;100.00;100367.63;5008140;28;20038;-74
2023/07/04 00:07:52;;;;;;;9.82;4.82;;;;;;;21.25;100.00;100393.78;4998895;28;20044;-75
2023/07/04 00:10:20;;;;;;;15.25;5.60;;;;;;;21.18;100.00;100386.13;5005296;28;20046;-77
2023/07/04 00:12:46;;;;;;;7.72;5.15;;;;;;;21.33;100.00;100381.88;5004184;28;20114;-76
2023/07/04 00:15:13;;;;;;;11.43;6.30;;;;;;;21.37;100.00;100407.50;5008258;28;20037;-75
2023/07/04 00:17:39;;;;;;;8.75;5.60;;;;;;;21.14;100.00;100379.19;5007506;28;20033;-75
2023/07/04 00:20:05;;;;;;;8.20;5.13;;;;;;;20.64;100.00;100292.44;5008206;28;20385;-77
2023/07/04 00:22:33;;;;;;;7.45;5.07;;;;;;;21.32;100.00;100399.72;4990604;28;20468;-76
2023/07/04 00:24:59;;;;;;;8.55;5.60;;;;;;;21.15;100.00;100367.59;5007370;28;20401;-74
2023/07/04 00:27:24;;;;;;;10.55;5.20;;;;;;;20.98;100.00;100337.19;5005778;28;20046;-75
2023/07/04 00:29:50;;;;;;;11.13;5.65;;;;;;;20.63;100.00;100282.72;5006406;28;20049;-75
2023/07/04 00:32:16;;;;;;;7.47;5.72;;;;;;;21.20;100.00;100397.59;5003840;28;20025;-74
2023/07/04 00:34:45;;;;;;;7.60;5.65;;;;;;;21.06;100.00;100383.06;5004633;28;20046;-74
2023/07/04 00:37:13;;;;;;;7.10;4.82;;;;;;;20.38;100.00;100280.22;4999585;28;20057;-75
2023/07/04 00:39:40;;;;;;;6.93;5.13;;;;;;;20.49;100.00;100290.44;5006275;28;20041;-74
2023/07/04 00:42:08;;;;;;;9.27;5.38;;;;;;;20.91;100.00;100372.19;5001094;28;20128;-75
2023/07/04 00:44:37;;;;;;;7.88;5.07;;;;;;;20.83;100.00;100378.72;4998510;28;20454;-74
2023/07/04 00:47:12;;;;;;;10.02;4.80;;;;;;;20.89;100.00;100400.75;5006687;28;20030;-74
2023/07/04 00:49:48;;;;;;;9.88;5.07;;;;;;;20.33;100.00;100314.19;4996288;28;20038;-75
2023/07/04 00:52:26;;;;;;;7.75;5.00;;;;;;;20.81;100.00;100391.28;4980273;28;20128;-75
2023/07/04 00:54:57;;;;;;;8.95;5.53;;;;;;;20.36;100.00;100330.06;4998974;28;20060;-75
2023/07/04 00:57:31;;;;;;;7.05;4.65;;;;;;;20.43;100.00;100310.19;5007113;28;20572;-75
2023/07/04 01:00:00;;;;;;;10.52;6.18;;;;;;;20.43;100.00;100316.38;5008931;28;20057;-75
2023/07/04 01:02:31;;;;;;;7.63;5.43;;;;;;;20.39;100.00;100343.25;5002428;28;20261;-74
2023/07/04 01:04:57;;;;;;;8.18;5.30;;;;;;;20.70;100.00;100413.97;4973503;28;20125;-75
2023/07/04 01:07:28;;;;;;;7.57;5.50;;;;;;;20.72;100.00;100428.09;5007003;28;20645;-74
2023/07/04 01:10:02;;;;;;;9.05;5.70;;;;;;;20.67;100.00;100425.63;5002350;28;20061;-74
2023/07/04 01:12:29;;;;;;;6.32;4.82;;;;;;;20.18;100.00;100345.88;5007225;28;20056;-73
2023/07/04 01:14:56;;;;;;;6.85;5.43;;;;;;;20.40;100.00;100379.63;5007240;28;20048;-74
2023/07/04 01:17:23;;;;;;;7.28;4.75;;;;;;;20.46;100.00;100371.38;5001001;28;20129;-75
2023/07/04 01:19:49;;;;;;;12.55;6.30;;;;;;;20.63;100.00;100422.25;5006813;28;20037;-75
2023/07/04 01:22:40;;;;;;;7.00;5.07;;;;;;;20.66;100.00;100423.91;5006885;28;20042;-75
2023/07/04 01:25:24;;;;;;;8.77;5.65;;;;;;;20.68;100.00;100443.38;5007378;28;20156;-74
2023/07/04 01:27:52;;;;;;;7.40;5.68;;;;;;;20.49;100.00;100416.59;5005456;28;20058;-75
2023/07/04 01:30:19;;;;;;;24.40;5.97;;;;;;;20.08;100.00;100343.63;5002053;28;20130;-75
2023/07/04 01:32:45;;;;;;;17.58;7.50;;;;;;;20.60;100.00;100441.03;5005873;28;20449;-75
2023/07/04 01:35:13;;;;;;;12.00;5.75;;;;;;;20.09;100.00;100374.66;5005120;28;20038;-75
2023/07/04 01:37:39;;;;;;;9.48;5.63;;;;;;;20.33;100.00;100402.16;4986569;28;20729;-75
2023/07/04 01:40:09;;;;;;;11.15;7.10;;;;;;;19.81;100.00;100293.22;5002476;28;20056;-75
2023/07/04 01:42:36;;;;;;;8.18;5.72;;;;;;;20.05;100.00;100346.44;4987239;28;20045;-77
2023/07/04 01:45:04;;;;;;;7.38;5.22;;;;;;;20.65;100.00;100456.84;5006212;28;20127;-75
2023/07/04 01:47:31;;;;;;;6.85;4.13;;;;;;;20.09;100.00;100372.91;4999923;28;20042;-75
2023/07/04 01:49:57;;;;;;;8.55;5.72;;;;;;;19.91;100.00;100352.31;5005083;28;20785;-75
2023/07/04 01:52:23;;;;;;;7.10;4.95;;;;;;;20.36;100.00;100442.84;5000848;28;20048;-76
2023/07/04 01:54:48;;;;;;;10.02;7.60;;;;;;;19.99;100.00;100387.50;5002880;28;20170;-75
2023/07/04 01:57:14;;;;;;;6.25;4.57;;;;;;;20.10;100.00;100371.09;4995781;28;20046;-75
2023/07/04 01:59:39;;;;;;;9.18;5.85;;;;;;;20.22;100.00;100422.06;4998172;28;20085;-76
2023/07/04 02:02:05;;;;;;;14.95;4.93;;;;;;;20.20;100.00;100421.25;4999910;28;20117;-75
2023/07/04 02:04:31;;;;;;;10.80;5.03;;;;;;;20.16;100.00;100410.81;4998534;28;20374;-75
2023/07/04 02:06:56;;;;;;;8.90;6.07;;;;;;;20.53;100.00;100475.97;5004528;28;20081;-75
2023/07/04 02:09:24;;;;;;;7.97;5.22;;;;;;;20.53;100.00;100470.63;4997576;28;20062;-76
2023/07/04 02:11:50;;;;;;;7.75;4.40;;;;;;;20.13;100.00;100385.13;5004124;28;20050;-74
2023/07/04 02:14:16;;;;;;;9.40;6.22;;;;;;;20.43;100.00;100432.81;5007263;28;20037;-75
2023/07/04 02:16:41;;;;;;;10.50;5.43;;;;;;;19.98;100.00;100378.63;5004096;28;20026;-75
2023/07/04 02:19:07;;;;;;;10.95;5.80;;;;;;;20.47;100.00;100482.41;5007369;28;20125;-74
2023/07/04 02:21:34;;;;;;;8.50;6.35;;;;;;;20.32;100.00;100469.69;5010513;28;20488;-75
2023/07/04 02:24:00;;;;;;;7.53;5.57;;;;;;;20.47;100.00;100474.41;4992824;28;20054;-74
2023/07/04 02:26:26;;;;;;;13.45;5.20;;;;;;;19.21;100.00;100247.63;5010213;28;20456;-75
2023/07/04 02:28:51;;;;;;;7.80;5.65;;;;;;;20.22;100.00;100384.78;5003419;28;20030;-75
2023/07/04 02:31:17;;;;;;;6.65;4.35;;;;;;;19.92;100.00;100316.75;5003281;28;20117;-74
2023/07/04 02:33:42;;;;;;;10.60;6.35;;;;;;;20.91;100.00;100468.22;5002511;28;20470;-75
2023/07/04 02:36:11;;;;;;;7.53;5.25;;;;;;;20.68;100.00;100442.53;5004815;28;20556;-75
2023/07/04 02:38:39;;;;;;;10.70;6.93;;;;;;;20.81;100.00;100471.28;4990378;28;20054;-76
2023/07/04 02:41:05;;;;;;;8.32;6.53;;;;;;;20.88;100.00;100463.88;5005856;28;20041;-77
2023/07/04 02:43:30;;;;;;;6.60;4.90;;;;;;;20.67;100.00;100441.63;5006502;28;20038;-74
2023/07/04 02:45:56;;;;;;;8.80;6.03;;;;;;;20.11;100.00;100333.75;5010080;28;20065;-75
2023/07/04 02:48:21;;;;;;;10.73;6.40;;;;;;;20.58;100.00;100402.91;5009814;28;20054;-74
2023/07/04 02:50:47;;;;;;;9.30;5.63;;;;;;;20.77;100.00;100451.00;5010124;28;20054;-76
2023/07/04 02:53:12;;;;;;;9.02;4.97;;;;;;;20.81;100.00;100471.28;4988177;28;20030;-75
2023/07/04 02:55:38;;;;;;;7.72;5.20;;;;;;;20.59;100.00;100439.28;5009297;28;20038;-75
2023/07/04 02:58:03;;;;;;;7.63;5.45;;;;;;;20.27;100.00;100373.94;5006730;28;20049;-75
2023/07/04 03:00:29;;;;;;;8.38;5.18;;;;;;;20.47;100.00;100394.44;5009735;28;20120;-74
2023/07/04 03:02:56;;;;;;;9.55;4.55;;;;;;;20.70;100.00;100477.97;5009191;28;20124;-74
2023/07/04 03:05:22;;;;;;;10.07;5.35;;;;;;;20.61;100.00;100472.09;5007414;28;20042;-74
2023/07/04 03:07:47;;;;;;;8.98;5.13;;;;;;;20.12;100.00;100385.22;5008004;28;20528;-74
2023/07/04 03:10:13;;;;;;;9.27;5.00;;;;;;;20.65;100.00;100463.03;5001321;28;20042;-73
2023/07/04 03:12:38;;;;;;;13.55;5.75;;;;;;;20.98;100.00;100480.38;5011413;28;20346;-76
2023/07/04 03:15:08;;;;;;;8.68;5.43;;;;;;;20.73;100.00;100430.72;4991291;28;20060;-76
2023/07/04 03:17:33;;;;;;;5.60;3.85;;;;;;;20.85;100.00;100488.00;5005735;28;20056;-77
2023/07/04 03:19:59;;;;;;;7.13;4.40;;;;;;;20.29;100.00;100393.38;5002162;28;20679;-76
2023/07/04 03:22:24;;;;;;;10.85;5.00;;;;;;;19.84;100.00;100305.56;5009141;28;20888;-77
2023/07/04 03:24:50;;;;;;;7.18;4.38;;;;;;;20.69;100.00;100489.56;5008427;28;20049;-76
2023/07/04 03:27:15;;;;;;;7.30;4.20;;;;;;;20.14;100.00;100402.00;5003512;28;20045;-77
2023/07/04 03:29:41;;;;;;;6.88;6.13;;;;;;;20.25;100.00;100423.75;4990556;28;20042;-74
2023/07/04 03:32:06;;;;;;;10.00;5.53;;;;;;;20.43;100.00;100473.66;5008069;28;20034;-75
2023/07/04 03:34:32;;;;;;;9.15;5.18;;;;;;;20.49;100.00;100474.38;5008241;28;20038;-76
2023/07/04 03:36:57;;;;;;;8.75;5.35;;;;;;;20.57;100.00;100481.13;5005728;28;20030;-77
2023/07/04 03:39:22;;;;;;;6.43;4.45;;;;;;;20.66;100.00;100455.91;4989289;28;20046;-75
2023/07/04 03:41:48;;;;;;;5.88;4.30;;;;;;;20.73;100.00;100492.06;5002239;28;20045;-75
2023/07/04 03:44:13;;;;;;;10.73;6.53;;;;;;;20.24;100.00;100406.03;5006560;28;20037;-75
2023/07/04 03:46:39;;;;;;;21.05;7.30;;;;;;;20.12;100.00;100403.88;5009396;28;20061;-74
2023/07/04 03:49:04;;;;;;;7.68;4.70;;;;;;;20.73;100.00;100502.72;5003383;28;20096;-77
2023/07/04 03:51:30;;;;;;;8.60;3.85;;;;;;;20.71;100.00;100506.38;5000750;28;20046;-77
2023/07/04 03:53:55;;;;;;;8.63;4.75;;;;;;;20.32;100.00;100416.38;5006362;28;20104;-77
2023/07/04 03:56:21;;;;;;;6.63;5.78;;;;;;;20.69;100.00;100468.25;5001857;28;20026;-77
2023/07/04 03:58:46;;;;;;;10.02;5.90;;;;;;;20.44;100.00;100407.91;5002773;28;20037;-76
2023/07/04 04:01:11;;;;;;;7.68;5.00;;;;;;;20.80;100.00;100461.53;5007521;28;20501;-78
2023/07/04 04:03:38;;;;;;;7.20;3.90;;;;;;;20.58;100.00;100463.34;5007648;28;20065;-77
2023/07/04 04:06:05;;;;;;;9.88;6.50;;;;;;;20.81;100.00;100505.97;4996401;28;20044;-76
2023/07/04 04:08:31;;;;;;;6.93;5.13;;;;;;;20.83;100.00;100477.41;4993458;28;20048;-76
2023/07/04 04:10:57;;;;;;;7.97;5.40;;;;;;;20.63;100.00;100472.91;5002589;28;20030;-76
2023/07/04 04:13:22;;;;;;;10.52;5.10;;;;;;;19.32;100.00;100260.53;5008030;28;20784;-75
2023/07/04 04:15:48;;;;;;;8.82;5.03;;;;;;;20.34;100.00;100422.53;5009111;28;20041;-76
2023/07/04 04:18:13;;;;;;;8.85;6.07;;;;;;;20.42;100.00;100418.63;5005804;28;20061;-76
2023/07/04 04:20:39;;;;;;;8.52;5.95;;;;;;;21.12;100.00;100504.69;4998396;28;20390;-75
2023/07/04 04:23:05;;;;;;;10.32;5.30;;;;;;;21.12;100.00;100515.34;5007920;28;20041;-75
2023/07/04 04:25:37;;;;;;;8.45;6.13;;;;;;;21.33;100.00;100508.22;5007425;28;20030;-75
2023/07/04 04:28:07;;;;;;;6.93;5.85;;;;;;;21.12;100.00;100475.34;5003411;28;20049;-74
2023/07/04 04:30:32;;;;;;;9.07;4.78;;;;;;;20.74;100.00;100391.56;5007133;28;20137;-74
2023/07/04 04:33:01;;;;;;;13.57;5.63;;;;;;;21.42;100.00;100515.00;5007193;28;20049;-75
2023/07/04 04:35:26;;;;;;;6.88;4.75;;;;;;;21.48;100.00;100506.72;5001441;28;20093;-75
2023/07/04 04:37:52;;;;;;;7.32;4.68;;;;;;;21.63;100.00;100510.50;4994313;28;20119;-75
2023/07/04 04:40:17;;;;;;;10.02;6.25;;;;;;;21.34;100.00;100491.28;5004591;28;20052;-75
2023/07/04 04:42:43;;;;;;;9.02;4.93;;;;;;;21.54;100.00;100511.81;5003064;28;20042;-75
2023/07/04 04:45:11;;;;;;;8.13;6.28;;;;;;;20.96;100.00;100416.41;5003001;28;20440;-76
2023/07/04 04:47:39;;;;;;;9.18;6.30;;;;;;;20.74;100.00;100356.91;5002360;28;20108;-76
2023/07/04 04:50:05;;;;;;;8.27;5.75;;;;;;;21.39;100.00;100451.88;5004285;28;20037;-75
2023/07/04 04:52:31;;;;;;;8.15;5.38;;;;;;;22.02;100.00;100512.34;5007893;28;20579;-75
2023/07/04 04:54:58;;;;;;;7.38;5.45;;;;;;;21.95;100.00;100506.41;5004324;28;20038;-75
2023/07/04 04:57:23;;;;;;;7.75;4.22;;;;;;;21.35;100.00;100412.06;5003037;28;20045;-75
2023/07/04 04:59:52;;;;;;;8.73;4.88;;;;;;;21.96;100.00;100512.59;5004659;28;20536;-76
2023/07/04 05:02:18;;;;;;;9.75;5.03;;;;;;;21.70;100.00;100451.44;5001405;28;20461;-75
2023/07/04 05:04:43;;;;;;;9.82;6.35;;;;;;;22.07;100.00;100472.91;4988281;28;20062;-75
2023/07/04 05:07:08;;;;;;;7.18;4.72;;;;;;;22.54;100.00;100491.19;5006956;28;20549;-75
2023/07/04 05:09:34;;;;;;;9.13;5.43;;;;;;;22.60;100.00;100511.44;5004270;28;20152;-75
2023/07/04 05:12:01;;;;;;;7.93;4.55;;;;;;;22.77;100.00;100495.41;5006008;28;20037;-77
2023/07/04 05:14:27;;;;;;;10.18;6.18;;;;;;;22.33;100.00;100432.44;5002538;28;20129;-77
2023/07/04 05:16:53;;;;;;;7.10;4.97;;;;;;;22.44;100.00;100473.88;5004483;28;20466;-75
2023/07/04 05:19:18;;;;;;;9.15;5.85;;;;;;;22.23;100.00;100446.34;5001025;28;20050;-75
2023/07/04 05:21:44;;;;;;;17.70;5.05;;;;;;;22.78;100.00;100531.94;5003887;28;20514;-77
2023/07/04 05:24:09;;;;;;;6.85;5.25;;;;;;;22.27;100.00;100458.63;5001458;28;20464;-75
2023/07/04 05:26:36;;;;;;;7.05;5.07;;;;;;;22.88;100.00;100533.22;5003985;28;20073;-76
2023/07/04 05:29:04;;;;;;;6.03;5.13;;;;;;;22.99;100.00;100502.41;4981753;28;20195;-76
2023/07/04 05:31:30;;;;;;;7.05;4.50;;;;;;;23.27;100.00;100504.53;4996816;28;20656;-75
2023/07/04 05:33:56;;;;;;;6.95;4.72;;;;;;;23.30;100.00;100488.34;4977080;28;20038;-75
2023/07/04 05:36:31;;;;;;;7.00;4.72;;;;;;;23.43;100.00;100513.50;4997198;28;20576;-75
2023/07/04 05:39:02;;;;;;;5.65;3.58;;;;;;;23.00;100.00;100410.47;5002780;28;20056;-78
2023/07/04 05:41:30;;;;;;;8.80;5.25;;;;;;;23.96;100.00;100442.84;5002898;28;20136;-79
2023/07/04 05:43:58;;;;;;;8.68;3.80;;;;;;;24.53;100.00;100445.00;5000186;28;20022;-77
2023/07/04 05:46:24;;;;;;;8.10;4.95;;;;;;;25.03;100.00;100475.25;4994986;28;20142;-76
2023/07/04 05:48:49;;;;;;;7.85;5.18;;;;;;;25.55;100.00;100495.44;4994325;28;20401;-79
2023/07/04 05:51:17;;;;;;;5.63;4.68;;;;;;;25.42;100.00;100442.44;5002531;28;20046;-77
2023/07/04 05:53:46;;;;;;;4.32;3.38;;;;;;;24.99;100.00;100411.94;5005636;28;20112;-79
2023/07/04 05:56:16;;;;;;;4.35;3.20;;;;;;;26.04;100.00;100487.91;5005269;28;20079;-77
2023/07/04 05:58:45;;;;;;;11.40;4.47;;;;;;;27.08;100.00;100517.06;4999991;28;20034;-78
2023/07/04 06:01:12;;;;;;;4.68;3.55;;;;;;;26.36;100.00;100525.31;5005061;28;20061;-77
2023/07/04 06:03:38;;;;;;;6.88;4.05;;;;;;;26.30;100.00;100440.50;5005172;28;20053;-78
2023/07/04 06:06:05;;;;;;;13.15;3.97;;;;;;;26.58;100.00;100518.59;5004041;28;20544;-78
2023/07/04 06:08:32;;;;;;;8.60;5.70;;;;;;;27.11;100.00;100533.00;5001653;28;20042;-78
2023/07/04 06:11:02;;;;;;;8.73;4.55;;;;;;;26.92;100.00;100495.69;4996194;28;20082;-78
2023/07/04 06:13:28;;;;;;;5.65;3.67;;;;;;;26.18;100.00;100478.97;5003455;28;20046;-78
2023/07/04 06:15:53;;;;;;;5.90;3.47;;;;;;;26.72;100.00;100462.88;4995516;28;20247;-78
2023/07/04 06:18:19;;;;;;;7.68;4.57;;;;;;;26.46;100.00;100399.97;5004112;28;20486;-78
2023/07/04 06:20:44;;;;;;;3.70;2.85;;;;;;;26.24;100.00;100451.63;4996573;28;20112;-78
2023/07/04 06:23:10;;;;;;;10.48;4.90;;;;;;;26.42;100.00;100491.78;5004701;28;20080;-78
2023/07/04 06:25:35;;;;;;;9.27;5.40;;;;;;;26.61;100.00;100505.78;5003917;28;20026;-78
2023/07/04 06:28:01;;;;;;;8.27;4.32;;;;;;;26.08;100.00;100443.72;4995891;28;20185;-78
2023/07/04 06:30:29;;;;;;;7.57;4.28;;;;;;;27.22;100.00;100506.25;5006087;28;20037;-78
2023/07/04 06:32:56;;;;;;;6.95;4.53;;;;;;;27.10;100.00;100472.88;5006023;28;20046;-75
2023/07/04 06:35:21;;;;;;;8.73;3.78;;;;;;;27.39;100.00;100488.91;5001702;28;20038;-77
2023/07/04 06:37:47;;;;;;;5.60;3.55;;;;;;;27.13;100.00;100491.53;5000726;28;20413;-75
2023/07/04 06:40:12;;;;;;;7.70;4.30;;;;;;;27.11;100.00;100503.38;4999941;28;20065;-74
2023/07/04 06:42:38;;;;;;;8.27;4.07;;;;;;;26.92;100.00;100474.13;5000318;28;20075;-73
2023/07/04 06:45:04;;;;;;;8.18;4.53;;;;;;;27.12;100.00;100449.41;5005779;28;20050;-73
2023/07/04 06:47:29;;;;;;;5.38;3.78;;;;;;;27.59;100.00;100490.22;4985598;28;20868;-74
2023/07/04 06:49:55;;;;;;;8.80;5.05;;;;;;;28.28;100.00;100469.13;4988341;28;20133;-74
2023/07/04 06:52:21;;;;;;;6.35;4.05;;;;;;;27.67;100.00;100423.13;4998589;28;20423;-74
2023/07/04 06:54:51;;;;;;;5.43;3.85;;;;;;;28.11;100.00;100474.91;5005424;28;20792;-74
2023/07/04 06:57:17;;;;;;;6.20;4.50;;;;;;;28.16;100.00;100416.06;4985869;28;20066;-74
2023/07/04 06:59:44;;;;;;;6.78;3.42;;;;;;;27.34;100.00;100421.84;5004700;28;20074;-75
2023/07/04 07:02:13;;;;;;;6.32;4.57;;;;;;;27.76;100.00;100476.41;5007513;28;20029;-74
2023/07/04 07:04:39;;;;;;;4.55;3.40;;;;;;;27.97;100.00;100484.84;5005005;28;20468;-74
2023/07/04 07:07:08;;;;;;;5.13;3.47;;;;;;;27.95;100.00;100434.66;5013202;28;20080;-74
2023/07/04 07:09:43;;;;;;;5.35;3.92;;;;;;;28.25;100.00;100422.63;5005432;28;20081;-74
2023/07/04 07:12:12;;;;;;;5.32;3.70;;;;;;;27.62;100.00;100427.13;4990488;28;20454;-74
2023/07/04 07:14:38;;;;;;;6.30;3.92;;;;;;;27.96;100.00;100455.28;4992247;28;20141;-75
2023/07/04 07:17:07;;;;;;;6.28;4.40;;;;;;;28.09;100.00;100484.94;5008471;28;20109;-75
2023/07/04 07:19:33;;;;;;;5.47;3.15;;;;;;;28.05;100.00;100486.13;4992224;28;20029;-74
2023/07/04 07:22:02;;;;;;;6.55;3.85;;;;;;;28.27;100.00;100474.66;5008588;28;20030;-74
2023/07/04 07:24:29;;;;;;;7.70;4.43;;;;;;;28.25;100.00;100484.69;5002968;28;20046;-74
2023/07/04 07:26:58;;;;;;;7.72;3.88;;;;;;;28.03;100.00;100436.84;4985048;28;20058;-74
2023/07/04 07:29:24;;;;;;;5.90;4.78;;;;;;;28.94;100.00;100476.88;5009989;28;20045;-74
2023/07/04 07:31:50;;;;;;;5.45;4.05;;;;;;;28.03;100.00;100420.66;5003617;28;20029;-75
2023/07/04 07:34:17;;;;;;;5.38;3.67;;;;;;;28.11;100.00;100420.94;5001553;28;20093;-75
2023/07/04 07:36:44;;;;;;;11.27;5.97;;;;;;;28.44;100.00;100476.97;5001125;28;20050;-75
2023/07/04 07:39:13;;;;;;;4.72;3.22;;;;;;;29.12;100.00;100486.31;5006166;28;20157;-74
2023/07/04 07:41:42;;;;;;;5.78;3.90;;;;;;;29.53;100.00;100482.25;5008629;28;20128;-74
2023/07/04 07:44:08;;;;;;;4.97;3.55;;;;;;;29.44;100.00;100456.78;5011740;28;20030;-75
2023/07/04 07:46:34;;;;;;;4.80;3.13;;;;;;;28.65;100.00;100485.34;5008491;28;20084;-77
2023/07/04 07:49:00;;;;;;;3.47;2.67;;;;;;;29.23;100.00;100472.84;5001178;28;20568;-74
2023/07/04 07:51:26;;;;;;;5.00;3.40;;;;;;;28.90;100.00;100402.47;5004211;28;20101;-74
2023/07/04 07:53:53;;;;;;;4.60;2.90;;;;;;;29.03;100.00;100401.41;5006538;28;20179;-74
2023/07/04 07:56:21;;;;;;;4.95;3.35;;;;;;;29.39;100.00;100450.03;4998167;28;20042;-75
2023/07/04 07:58:47;;;;;;;7.72;3.30;;;;;;;29.73;100.00;100474.41;5003441;28;20040;-74
2023/07/04 08:01:19;;;;;;;9.05;6.07;;;;;;;29.94;100.00;100450.19;5007098;28;20378;-75
2023/07/04 08:03:45;;;;;;;4.93;3.78;;;;;;;29.82;100.00;100492.63;4989143;28;20069;-74
2023/07/04 08:06:23;;;;;;;7.30;3.80;;;;;;;29.93;98.78;100491.78;5000952;28;20100;-74
2023/07/04 08:08:49;;;;;;;5.05;3.65;;;;;;;29.59;97.57;100419.53;4999756;28;20494;-74
2023/07/04 08:11:16;;;;;;;10.98;3.92;;;;;;;30.45;100.00;100479.44;5001524;28;20501;-73
2023/07/04 08:13:41;;;;;;;8.70;4.40;;;;;;;30.76;96.63;100495.84;4985792;28;20105;-73
2023/07/04 08:16:08;;;;;;;6.10;4.45;;;;;;;30.16;91.15;100424.97;5005449;28;20045;-74
2023/07/04 08:18:33;;;;;;;3.75;3.00;;;;;;;29.13;91.25;100436.69;5004047;28;20370;-74
2023/07/04 08:21:02;;;;;;;4.65;3.33;;;;;;;29.83;88.10;100416.78;5006473;28;20042;-76
2023/07/04 08:23:28;;;;;;;9.30;8.27;;;;;;;30.27;85.19;100452.91;5003415;28;20046;-76
2023/07/04 08:25:53;;;;;;;4.28;2.78;;;;;;;30.65;85.32;100466.97;5004343;28;20038;-74
2023/07/04 08:28:23;;;;;;;5.10;3.28;;;;;;;30.84;85.16;100499.69;5004746;28;20485;-74
2023/07/04 08:30:50;;;;;;;5.82;3.42;;;;;;;30.01;87.35;100449.56;4991484;28;20052;-75
2023/07/04 08:33:17;;;;;;;6.63;3.70;;;;;;;29.86;91.62;100467.91;4995438;28;21190;-75
2023/07/04 08:36:07;;;;;;;6.28;3.70;;;;;;;29.48;96.46;100480.88;4998545;28;20057;-74
2023/07/04 08:38:32;;;;;;;4.97;3.80;;;;;;;29.59;97.83;100470.94;5005346;28;20049;-74
2023/07/04 08:40:59;;;;;;;6.20;4.35;;;;;;;30.47;90.34;100456.66;5001691;28;20034;-74
2023/07/04 08:43:44;;;;;;;4.97;3.85;;;;;;;30.52;86.95;100483.38;5005002;28;20442;-74
2023/07/04 08:46:12;;;;;;;4.63;2.95;;;;;;;29.96;85.60;100403.09;5007245;28;20054;-75
2023/07/04 08:48:40;;;;;;;4.85;3.35;;;;;;;30.16;83.08;100428.53;5007078;28;20097;-74
2023/07/04 08:51:06;;;;;;;9.00;2.70;;;;;;;31.39;82.51;100474.28;4999636;28;20053;-74
2023/07/04 08:53:35;;;;;;;6.10;3.72;;;;;;;30.83;82.53;100478.09;5007156;28;20037;-74
2023/07/04 08:56:21;;;;;;;4.30;3.08;;;;;;;31.24;86.04;100481.91;5007870;28;20034;-74
2023/07/04 08:59:01;;;;;;;5.03;2.72;;;;;;;31.75;76.98;100471.09;4995182;28;20133;-74
2023/07/04 09:02:05;;;;;;;3.72;2.45;;;;;;;32.07;73.19;100477.41;5005046;28;20069;-75
2023/07/04 09:05:10;;;;;;;8.20;3.55;;;;;;;32.27;71.92;100402.28;4996666;28;20061;-75
2023/07/04 09:08:07;;;;;;;5.80;3.88;;;;;;;32.22;70.04;100481.47;5004277;28;20051;-77
2023/07/04 09:10:38;;;;;;;4.85;3.53;;;;;;;32.08;69.03;100455.53;5003678;28;20057;-75
2023/07/04 09:13:11;;;;;;;13.68;3.53;;;;;;;32.82;62.46;100410.75;5007676;28;20136;-73
2023/07/04 09:15:40;;;;;;;4.07;2.72;;;;;;;31.53;69.03;100468.53;5000233;28;20052;-76
2023/07/04 09:18:08;;;;;;;5.15;3.20;;;;;;;32.13;70.22;100466.84;5000611;28;20049;-73
2023/07/04 09:20:45;;;;;;;3.90;3.22;;;;;;;32.21;65.43;100400.13;5005843;28;20046;-73
2023/07/04 09:23:14;;;;;;;4.78;3.45;;;;;;;33.21;60.63;100451.53;5001874;28;20025;-72
2023/07/04 09:25:41;;;;;;;5.65;4.35;;;;;;;33.43;60.52;100402.25;5000527;28;20787;-72
2023/07/04 09:28:07;;;;;;;4.35;2.47;;;;;;;33.58;57.78;100402.66;4996755;28;20038;-72
2023/07/04 09:30:33;;;;;;;5.78;3.33;;;;;;;33.01;57.82;100408.03;4998392;28;20042;-71
2023/07/04 09:32:59;;;;;;;4.18;2.72;;;;;;;32.14;59.49;100387.09;5003686;28;20044;-74
2023/07/04 09:35:24;;;;;;;10.07;3.20;;;;;;;33.30;61.46;100474.31;4990214;28;20050;-73
2023/07/04 09:37:59;;;;;;;4.32;3.17;;;;;;;34.33;58.75;100450.75;4998602;28;20080;-75
2023/07/04 09:41:05;;;;;;;5.68;2.28;;;;;;;33.14;52.82;100437.66;4997596;28;20053;-75
2023/07/04 09:43:33;;;;;;;5.75;3.30;;;;;;;34.60;52.05;100449.81;4991560;28;20065;-74
2023/07/04 09:46:10;;;;;;;7.75;5.65;;;;;;;34.70;50.16;100461.56;4991806;28;20518;-75
2023/07/04 09:48:36;;;;;;;4.35;3.28;;;;;;;33.10;53.04;100459.84;5002288;28;20042;-78
2023/07/04 09:51:17;;;;;;;4.30;2.97;;;;;;;33.42;55.29;100456.81;5004145;28;20149;-73
2023/07/04 09:53:43;;;;;;;6.28;5.68;;;;;;;31.88;55.17;100413.00;5001055;28;20061;-72
2023/07/04 09:56:09;;;;;;;4.25;2.70;;;;;;;31.38;58.37;100374.94;5005100;28;20030;-73
2023/07/04 09:58:36;;;;;;;47.13;31.63;;;;;;;32.29;65.08;100447.31;5003335;28;20072;-73
2023/07/04 10:01:15;;;;;;;19.40;13.38;;;;;;;33.15;58.28;100436.66;4981008;28;20115;-73
2023/07/04 10:03:42;;;;;;;55.05;34.90;;;;;;;32.71;57.89;100432.66;4999998;28;20054;-72
2023/07/04 10:06:10;;;;;;;8.95;3.90;;;;;;;33.40;54.59;100388.06;4968736;28;20054;-72
2023/07/04 10:08:53;;;;;;;10.82;5.82;;;;;;;31.53;61.23;100384.44;5004468;28;20072;-72
2023/07/04 10:11:34;;;;;;;104.20;68.85;;;;;;;30.95;76.55;100422.88;5000486;28;20038;-70
2023/07/04 10:14:04;;;;;;;8.55;6.05;;;;;;;31.28;73.90;100358.59;5002507;28;20026;-71
2023/07/04 10:16:29;;;;;;;4.10;3.38;;;;;;;31.83;65.68;100369.16;5003476;28;20041;-72
2023/07/04 10:19:18;;;;;;;5.45;3.38;;;;;;;33.04;61.02;100442.28;5004591;28;20096;-71
2023/07/04 10:21:53;;;;;;;9.05;5.45;;;;;;;33.24;58.53;100358.75;5003649;28;20053;-71
2023/07/04 10:24:25;;;;;;;42.85;33.22;;;;;;;31.98;60.37;100356.06;4988240;28;20351;-71
2023/07/04 10:27:05;;;;;;;5.38;3.60;;;;;;;32.49;57.72;100396.56;5001616;28;20042;-71
2023/07/04 10:29:36;;;;;;;6.97;5.43;;;;;;;32.35;61.51;100410.56;4996384;28;20049;-72
2023/07/04 10:32:08;;;;;;;8.87;7.90;;;;;;;31.71;67.82;100338.53;5009276;28;20033;-73
2023/07/04 10:34:35;;;;;;;27.30;15.98;;;;;;;31.70;69.68;100408.25;5002752;28;20449;-72
2023/07/04 10:37:02;;;;;;;25.55;15.05;;;;;;;32.29;68.43;100419.31;5008144;28;20038;-72
2023/07/04 10:39:30;;;;;;;30.33;18.15;;;;;;;31.47;68.21;100402.13;5002231;28;20111;-72
2023/07/04 10:42:04;;;;;;;58.45;34.78;;;;;;;29.60;88.17;100342.84;4986979;28;20038;-72
2023/07/04 10:44:33;;;;;;;26.08;16.80;;;;;;;30.02;86.47;100342.22;5008083;28;20041;-71
2023/07/04 10:47:05;;;;;;;8.32;3.90;;;;;;;30.55;78.66;100414.53;5005932;28;20030;-72
2023/07/04 10:49:43;;;;;;;6.88;5.03;;;;;;;30.11;76.53;100341.44;5008358;28;20049;-72
2023/07/04 10:52:17;;;;;;;8.23;6.05;;;;;;;31.32;76.14;100415.13;5007038;28;20056;-72
2023/07/04 10:54:42;;;;;;;23.83;19.15;;;;;;;30.56;85.02;100416.28;5009160;28;20045;-71
2023/07/04 10:57:14;;;;;;;7.22;4.68;;;;;;;31.61;71.96;100337.63;5001252;28;20056;-73
2023/07/04 10:59:44;;;;;;;3.88;2.92;;;;;;;32.48;61.84;100413.88;4990218;28;20037;-72
2023/07/04 11:02:30;;;;;;;18.60;10.93;;;;;;;32.68;66.05;100403.91;4989667;28;20037;-71
2023/07/04 11:05:10;;;;;;;9.07;6.95;;;;;;;32.99;58.77;100342.06;5002614;28;20450;-72
2023/07/04 11:07:42;;;;;;;6.10;4.20;;;;;;;33.84;57.05;100400.09;5001294;28;20119;-71
2023/07/04 11:10:11;;;;;;;10.40;6.60;;;;;;;33.08;52.77;100394.72;4987352;28;20034;-73
2023/07/04 11:12:38;;;;;;;24.25;15.15;;;;;;;32.52;55.98;100328.41;5007281;28;20165;-72
2023/07/04 11:15:21;;;;;;;12.93;9.88;;;;;;;31.51;57.47;100315.91;5005097;28;20046;-72
2023/07/04 11:17:48;;;;;;;6.57;4.28;;;;;;;31.75;64.67;100365.25;5005531;28;20785;-72
2023/07/04 11:20:38;;;;;;;5.55;3.05;;;;;;;32.49;59.08;100336.81;5006820;28;20244;-72
2023/07/04 11:23:13;;;;;;;11.38;6.88;;;;;;;33.04;57.96;100370.66;4965536;28;20041;-72